Time;durP1;ratioP1;P1;durP2;ratioP2;P2;SDS_P1;SDS_P2;PMS_P1;PMS_P2;Temp;Humidity;BMP_temperature;BMP_pressure;BME280_temperature;BME280_humidity;BME280_pressure;Samples;Min_cycle;Max_cycle;Signal;HPM_P1;HPM_P2
2022/12/20 00:01:13;;;;;;;;;;;11.70;99.90;;;;;;6247240;23;19899;-75
2022/12/20 00:03:39;;;;;;;;;;;11.70;99.90;;;;;;6246778;23;19903;-76
2022/12/20 00:06:04;;;;;;;;;;;11.70;99.90;;;;;;6247218;23;19922;-73
2022/12/20 00:08:30;;;;;;;;;;;11.80;99.90;;;;;;6246865;23;20238;-74
2022/12/20 00:10:58;;;;;;;;;;;11.90;99.90;;;;;;6219975;23;19899;-74
2022/12/20 00:13:24;;;;;;;;;;;12.00;99.90;;;;;;6219968;23;19903;-75
2022/12/20 00:15:49;;;;;;;;;;;12.10;99.90;;;;;;6246793;23;19954;-75
2022/12/20 00:18:15;;;;;;;;;;;12.10;99.90;;;;;;6247117;23;19935;-75
2022/12/20 00:20:40;;;;;;;;;;;12.00;99.90;;;;;;6246711;23;19911;-75
2022/12/20 00:23:06;;;;;;;;;;;11.90;99.90;;;;;;6247073;23;19899;-76
2022/12/20 00:25:31;;;;;;;;;;;11.90;99.90;;;;;;6246570;22;20369;-74
2022/12/20 00:27:57;;;;;;;;;;;12.00;99.90;;;;;;6246833;23;19953;-76
2022/12/20 00:30:22;;;;;;;;;;;12.00;99.90;;;;;;6246932;23;19907;-75
2022/12/20 00:32:48;;;;;;;;;;;12.00;99.90;;;;;;6246464;22;19986;-76
2022/12/20 00:35:14;;;;;;;;;;;12.10;99.90;;;;;;6247018;23;19935;-73
2022/12/20 00:37:40;;;;;;;;;;;12.10;99.90;;;;;;6246665;23;19947;-73
2022/12/20 00:40:06;;;;;;;;;;;12.10;99.90;;;;;;6247366;23;19978;-74
2022/12/20 00:42:32;;;;;;;;;;;12.00;99.90;;;;;;6246609;23;19904;-73
2022/12/20 00:44:57;;;;;;;;;;;12.00;99.90;;;;;;6247161;23;19903;-73
2022/12/20 00:47:23;;;;;;;;;;;12.10;99.90;;;;;;6246626;23;19946;-75
2022/12/20 00:49:48;;;;;;;;;;;12.10;99.90;;;;;;6247183;23;19953;-75
2022/12/20 00:52:14;;;;;;;;;;;12.00;99.90;;;;;;6246379;23;19931;-74
2022/12/20 00:54:40;;;;;;;;;;;12.00;99.90;;;;;;6246783;23;19907;-76
2022/12/20 00:57:05;;;;;;;;;;;12.00;99.90;;;;;;6246437;23;19900;-75
2022/12/20 00:59:32;;;;;;;;;;;12.00;99.90;;;;;;6246499;23;19903;-74
2022/12/20 01:01:57;;;;;;;;;;;12.00;99.90;;;;;;6246802;23;19899;-73
2022/12/20 01:04:23;;;;;;;;;;;12.10;99.90;;;;;;6246335;23;19954;-76
2022/12/20 01:06:48;;;;;;;;;;;12.10;99.90;;;;;;6246437;23;19899;-77
2022/12/20 01:09:14;;;;;;;;;;;12.10;99.90;;;;;;6246397;23;19899;-75
2022/12/20 01:11:40;;;;;;;;;;;12.10;99.90;;;;;;6246762;23;19899;-78
2022/12/20 01:14:07;;;;;;;;;;;12.20;99.90;;;;;;6246333;23;19906;-74
2022/12/20 01:16:37;;;;;;;;;;;12.20;99.90;;;;;;6246714;23;19900;-73
2022/12/20 01:19:03;;;;;;;;;;;12.20;99.90;;;;;;6246322;23;19900;-77
2022/12/20 01:21:29;;;;;;;;;;;12.20;99.90;;;;;;6246374;23;20334;-74
2022/12/20 01:23:55;;;;;;;;;;;12.30;99.90;;;;;;6246460;22;19904;-76
2022/12/20 01:26:21;;;;;;;;;;;12.30;99.90;;;;;;6219492;23;19904;-75
2022/12/20 01:28:48;;;;;;;;;;;12.30;99.90;;;;;;6246319;23;20329;-75
2022/12/20 01:31:15;;;;;;;;;;;12.30;99.90;;;;;;6246081;23;19986;-74
2022/12/20 01:33:40;;;;;;;;;;;12.40;99.90;;;;;;6246622;23;19900;-75
2022/12/20 01:36:26;;;;;;;;;;;12.40;99.90;;;;;;6246230;23;20229;-73
2022/12/20 01:38:56;;;;;;;;;;;12.50;99.90;;;;;;6245498;23;19957;-72
2022/12/20 01:41:22;;;;;;;;;;;12.50;99.90;;;;;;6246960;23;19903;-74
2022/12/20 01:43:52;;;;;;;;;;;12.50;99.90;;;;;;6246510;23;20303;-73
2022/12/20 01:46:19;;;;;;;;;;;12.50;99.90;;;;;;6246941;23;20261;-74
2022/12/20 01:48:49;;;;;;;;;;;12.50;99.90;;;;;;6219298;23;19950;-73
2022/12/20 01:51:15;;;;;;;;;;;12.50;99.90;;;;;;6246629;23;19900;-74
2022/12/20 01:53:41;;;;;;;;;;;12.60;99.90;;;;;;6246205;23;19910;-76
2022/12/20 01:56:07;;;;;;;;;;;12.60;99.90;;;;;;6246922;23;19899;-75
2022/12/20 01:58:33;;;;;;;;;;;12.60;99.90;;;;;;6246208;23;20318;-74
2022/12/20 02:00:59;;;;;;;;;;;12.70;99.90;;;;;;6246523;23;19899;-74
2022/12/20 02:03:24;;;;;;;;;;;12.70;99.90;;;;;;6246016;23;19910;-78
2022/12/20 02:05:50;;;;;;;;;;;12.70;99.90;;;;;;6248131;23;20298;-75
2022/12/20 02:08:17;;;;;;;;;;;12.70;99.90;;;;;;6221056;23;19900;-75
2022/12/20 02:11:10;;;;;;;;;;;12.70;99.90;;;;;;6248216;23;20014;-73
2022/12/20 02:13:54;;;;;;;;;;;12.70;99.90;;;;;;6190310;23;19906;-75
2022/12/20 02:16:23;;;;;;;;;;;12.70;99.90;;;;;;6248211;23;19900;-75
2022/12/20 02:18:55;;;;;;;;;;;12.70;99.90;;;;;;6247839;23;19907;-76
2022/12/20 02:21:32;;;;;;;;;;;12.80;99.90;;;;;;6247798;23;20250;-76
2022/12/20 02:24:16;;;;;;;;;;;12.80;99.90;;;;;;6248352;22;19969;-73
2022/12/20 02:26:53;;;;;;;;;;;12.80;99.90;;;;;;6248089;23;19931;-74
2022/12/20 02:29:36;;;;;;;;;;;12.90;99.90;;;;;;6247773;23;19899;-74
2022/12/20 02:32:07;;;;;;;;;;;12.80;99.90;;;;;;6248391;22;19916;-76
2022/12/20 02:34:34;;;;;;;;;;;12.90;99.90;;;;;;6247738;23;19937;-76
2022/12/20 02:36:59;;;;;;;;;;;12.80;99.90;;;;;;6220785;23;19899;-73
2022/12/20 02:39:27;;;;;;;;;;;12.90;99.90;;;;;;6248055;23;19907;-75
2022/12/20 02:42:06;;;;;;;;;;;12.90;99.90;;;;;;6247979;23;20307;-76
2022/12/20 02:47:20;;;;;;;;;;;12.90;99.90;;;;;;6248022;23;20241;-75
2022/12/20 02:49:46;;;;;;;;;;;12.90;99.90;;;;;;6247585;23;19899;-75
2022/12/20 02:52:12;;;;;;;;;;;12.80;99.90;;;;;;6247893;23;20330;-74
2022/12/20 02:54:38;;;;;;;;;;;12.80;99.90;;;;;;6247597;23;19934;-73
2022/12/20 02:57:03;;;;;;;;;;;12.80;99.90;;;;;;6220701;23;19899;-75
2022/12/20 02:59:29;;;;;;;;;;;12.80;99.90;;;;;;6247520;23;19949;-75
2022/12/20 03:01:54;;;;;;;;;;;12.70;99.90;;;;;;6248148;23;20234;-74
2022/12/20 03:04:22;;;;;;;;;;;12.70;99.90;;;;;;6247334;23;19903;-74
2022/12/20 03:06:56;;;;;;;;;;;12.80;99.90;;;;;;6248118;23;19906;-75
2022/12/20 03:09:22;;;;;;;;;;;12.80;99.90;;;;;;6247431;23;19921;-75
2022/12/20 03:11:47;;;;;;;;;;;12.80;99.90;;;;;;6247348;23;20374;-77
2022/12/20 03:14:13;;;;;;;;;;;12.80;99.90;;;;;;6247670;23;19931;-74
2022/12/20 03:16:38;;;;;;;;;;;12.80;99.90;;;;;;6247614;23;19899;-73
2022/12/20 03:19:04;;;;;;;;;;;12.90;99.90;;;;;;6247311;23;19899;-73
2022/12/20 03:21:29;;;;;;;;;;;12.90;99.90;;;;;;6247921;23;19899;-74
2022/12/20 03:23:55;;;;;;;;;;;12.90;99.90;;;;;;6247085;22;19910;-75
2022/12/20 03:26:21;;;;;;;;;;;12.90;99.90;;;;;;6247585;23;19903;-73
2022/12/20 03:28:46;;;;;;;;;;;13.00;99.90;;;;;;6247499;23;20336;-73
2022/12/20 03:31:12;;;;;;;;;;;13.00;99.90;;;;;;6246988;23;19918;-75
2022/12/20 03:33:37;;;;;;;;;;;13.00;99.90;;;;;;6247437;23;19982;-76
2022/12/20 03:36:03;;;;;;;;;;;13.00;99.90;;;;;;6247096;23;19905;-73
2022/12/20 03:38:28;;;;;;;;;;;13.00;99.90;;;;;;6247772;23;20330;-75
2022/12/20 03:40:54;;;;;;;;;;;13.10;99.90;;;;;;6247089;23;19906;-75
2022/12/20 03:43:19;;;;;;;;;;;13.10;99.90;;;;;;6247407;23;19906;-76
2022/12/20 03:45:45;;;;;;;;;;;13.10;99.90;;;;;;6246942;23;19903;-73
2022/12/20 03:48:10;;;;;;;;;;;13.00;99.90;;;;;;6247325;23;19899;-73
2022/12/20 03:50:36;;;;;;;;;;;13.10;99.90;;;;;;6246959;23;19906;-74
2022/12/20 03:53:01;;;;;;;;;;;13.10;99.90;;;;;;6246967;23;19911;-73
2022/12/20 03:55:27;;;;;;;;;;;13.10;99.90;;;;;;6247247;23;19997;-75
2022/12/20 03:57:52;;;;;;;;;;;13.10;99.90;;;;;;6247258;23;19907;-74
2022/12/20 04:00:19;;;;;;;;;;;13.20;99.90;;;;;;6246896;23;19907;-77
2022/12/20 04:02:45;;;;;;;;;;;13.20;99.90;;;;;;6246859;23;19931;-75
2022/12/20 04:05:10;;;;;;;;;;;13.20;99.90;;;;;;6246766;23;20223;-76
2022/12/20 04:07:36;;;;;;;;;;;13.20;99.90;;;;;;6247110;23;20310;-75
2022/12/20 04:10:02;;;;;;;;;;;13.20;99.90;;;;;;6246743;23;19903;-76
2022/12/20 04:12:28;;;;;;;;;;;13.20;99.90;;;;;;6246750;23;19907;-74
2022/12/20 04:14:53;;;;;;;;;;;13.30;99.90;;;;;;6247035;23;20200;-75
2022/12/20 04:17:19;;;;;;;;;;;13.30;99.90;;;;;;6246668;23;19904;-73
2022/12/20 04:19:44;;;;;;;;;;;13.30;99.90;;;;;;6246686;23;19900;-76
2022/12/20 04:22:10;;;;;;;;;;;13.30;99.90;;;;;;6246653;23;19906;-75
2022/12/20 04:24:35;;;;;;;;;;;13.30;99.90;;;;;;6246696;22;20326;-76
2022/12/20 04:27:01;;;;;;;;;;;13.30;99.90;;;;;;6246450;23;20319;-74
2022/12/20 04:29:26;;;;;;;;;;;13.30;99.90;;;;;;6219709;23;19899;-77
2022/12/20 04:31:52;;;;;;;;;;;13.30;99.90;;;;;;6246395;23;19911;-74
2022/12/20 04:34:17;;;;;;;;;;;13.20;99.90;;;;;;6246938;23;19907;-75
2022/12/20 04:36:43;;;;;;;;;;;13.20;99.90;;;;;;6246566;23;19900;-78
2022/12/20 04:39:08;;;;;;;;;;;13.20;99.90;;;;;;6246572;23;19899;-75
2022/12/20 04:41:34;;;;;;;;;;;13.20;99.90;;;;;;6246951;23;20302;-75
2022/12/20 04:43:59;;;;;;;;;;;13.20;99.90;;;;;;6246841;23;19907;-73
2022/12/20 04:46:25;;;;;;;;;;;13.10;99.90;;;;;;6246885;23;19900;-73
2022/12/20 04:48:51;;;;;;;;;;;13.10;99.90;;;;;;6246518;23;20053;-75
2022/12/20 04:51:17;;;;;;;;;;;13.10;99.90;;;;;;6246471;23;19982;-76
2022/12/20 04:53:46;;;;;;;;;;;13.10;99.90;;;;;;6247199;23;20360;-73
2022/12/20 04:56:17;;;;;;;;;;;13.10;99.90;;;;;;6246784;23;19910;-73
2022/12/20 04:58:42;;;;;;;;;;;13.00;99.90;;;;;;6247212;23;19942;-77
2022/12/20 05:01:08;;;;;;;;;;;13.00;99.90;;;;;;6246450;23;19900;-75
2022/12/20 05:03:34;;;;;;;;;;;13.00;99.90;;;;;;6246665;23;19978;-76
2022/12/20 05:06:00;;;;;;;;;;;12.90;99.90;;;;;;6246410;23;19899;-75
2022/12/20 05:08:25;;;;;;;;;;;12.90;99.90;;;;;;6247058;23;19900;-74
2022/12/20 05:10:51;;;;;;;;;;;12.80;99.90;;;;;;6246390;23;19910;-74
2022/12/20 05:13:16;;;;;;;;;;;12.80;99.90;;;;;;6246734;23;20207;-73
2022/12/20 05:15:42;;;;;;;;;;;12.80;99.90;;;;;;6246388;23;19900;-73
2022/12/20 05:18:08;;;;;;;;;;;12.80;99.90;;;;;;6246407;23;19899;-75
2022/12/20 05:20:33;;;;;;;;;;;12.80;99.90;;;;;;6219563;23;19953;-76
2022/12/20 05:28:31;;;;;;;;;;;12.80;99.90;;;;;;6246373;23;20250;-74
2022/12/20 05:30:57;;;;;;;;;;;12.80;99.90;;;;;;6246631;23;19908;-76
2022/12/20 05:33:22;;;;;;;;;;;12.80;99.90;;;;;;6246281;23;19899;-74
2022/12/20 05:35:48;;;;;;;;;;;12.80;99.90;;;;;;6246266;23;19907;-74
2022/12/20 05:38:13;;;;;;;;;;;12.80;99.90;;;;;;6246571;23;20230;-78
2022/12/20 05:40:39;;;;;;;;;;;12.70;99.90;;;;;;6220724;23;19926;-72
2022/12/20 05:43:05;;;;;;;;;;;12.80;99.90;;;;;;6248521;23;19953;-73
2022/12/20 05:45:30;;;;;;;;;;;12.80;99.90;;;;;;6248115;23;19904;-73
2022/12/20 05:47:56;;;;;;;;;;;12.80;99.90;;;;;;6248176;23;20214;-74
2022/12/20 05:50:22;;;;;;;;;;;12.80;99.90;;;;;;6248499;23;20326;-73
2022/12/20 05:52:47;;;;;;;;;;;12.80;99.90;;;;;;6248132;23;20322;-73
2022/12/20 05:55:13;;;;;;;;;;;12.90;99.90;;;;;;6248064;23;19978;-74
2022/12/20 05:57:38;;;;;;;;;;;12.80;99.90;;;;;;6248739;23;19934;-72
2022/12/20 06:00:04;;;;;;;;;;;12.90;99.90;;;;;;6248054;23;19900;-74
2022/12/20 06:02:30;;;;;;;;;;;12.90;99.90;;;;;;6247907;23;19950;-72
2022/12/20 06:04:57;;;;;;;;;;;12.90;99.90;;;;;;6247880;23;19957;-73
2022/12/20 06:07:23;;;;;;;;;;;12.90;99.90;;;;;;6248346;23;19899;-76
2022/12/20 06:09:48;;;;;;;;;;;13.00;99.90;;;;;;6247929;23;19906;-74
2022/12/20 06:12:14;;;;;;;;;;;13.00;99.90;;;;;;6248229;23;19953;-73
2022/12/20 06:14:39;;;;;;;;;;;13.00;99.90;;;;;;6247915;23;19906;-74
2022/12/20 06:17:05;;;;;;;;;;;13.00;99.90;;;;;;6247899;23;20322;-73
2022/12/20 06:19:30;;;;;;;;;;;13.00;99.90;;;;;;6220975;23;19927;-77
2022/12/20 06:21:56;;;;;;;;;;;13.00;99.90;;;;;;6248149;23;20294;-73
2022/12/20 06:24:24;;;;;;;;;;;13.00;99.90;;;;;;6247590;22;20285;-74
2022/12/20 06:26:50;;;;;;;;;;;13.00;99.90;;;;;;6248510;23;19903;-74
2022/12/20 06:29:16;;;;;;;;;;;13.00;99.90;;;;;;6248065;23;19965;-74
2022/12/20 06:31:42;;;;;;;;;;;13.00;99.90;;;;;;6220500;23;19922;-73
2022/12/20 06:34:08;;;;;;;;;;;13.00;99.90;;;;;;6248077;23;19899;-74
2022/12/20 06:36:34;;;;;;;;;;;13.00;99.90;;;;;;6247751;23;19899;-74
2022/12/20 06:38:59;;;;;;;;;;;13.00;99.90;;;;;;6247682;23;19904;-75
2022/12/20 06:41:25;;;;;;;;;;;13.00;99.90;;;;;;6220835;23;19900;-73
2022/12/20 06:43:51;;;;;;;;;;;13.00;99.90;;;;;;6247547;23;19957;-74
2022/12/20 06:46:16;;;;;;;;;;;13.00;99.90;;;;;;6247640;23;20416;-73
2022/12/20 06:48:42;;;;;;;;;;;13.00;99.90;;;;;;6247935;23;20329;-72
2022/12/20 06:51:07;;;;;;;;;;;13.00;99.90;;;;;;6247355;23;19900;-74
2022/12/20 06:53:33;;;;;;;;;;;13.00;99.90;;;;;;6247545;23;19900;-76
2022/12/20 06:55:58;;;;;;;;;;;13.00;99.90;;;;;;6247518;23;20238;-74
2022/12/20 06:58:24;;;;;;;;;;;13.00;99.90;;;;;;6247497;23;19899;-74
2022/12/20 07:00:49;;;;;;;;;;;13.10;99.90;;;;;;6248180;23;19906;-75
2022/12/20 07:03:15;;;;;;;;;;;13.00;99.90;;;;;;6247456;23;19947;-76
2022/12/20 07:05:40;;;;;;;;;;;13.00;99.90;;;;;;6247348;23;19910;-74
2022/12/20 07:08:07;;;;;;;;;;;13.00;99.90;;;;;;6220553;23;20309;-75
2022/12/20 07:10:34;;;;;;;;;;;13.00;99.90;;;;;;6247324;23;20241;-73
2022/12/20 07:12:59;;;;;;;;;;;13.00;99.90;;;;;;6247641;23;19900;-73
2022/12/20 07:15:25;;;;;;;;;;;13.00;99.90;;;;;;6247294;23;19907;-74
2022/12/20 07:17:51;;;;;;;;;;;13.00;99.90;;;;;;6247599;23;19907;-72
2022/12/20 07:20:17;;;;;;;;;;;13.00;99.90;;;;;;6247284;23;19899;-73
2022/12/20 07:22:42;;;;;;;;;;;13.00;99.90;;;;;;6247615;23;19903;-76
2022/12/20 07:25:08;;;;;;;;;;;13.00;99.90;;;;;;6247178;22;19950;-74
2022/12/20 07:27:34;;;;;;;;;;;12.90;99.90;;;;;;6247944;23;19899;-74
2022/12/20 07:29:59;;;;;;;;;;;12.90;99.90;;;;;;6247136;23;19906;-76
2022/12/20 07:32:25;;;;;;;;;;;12.90;99.90;;;;;;6247012;23;19918;-76
2022/12/20 07:34:50;;;;;;;;;;;12.90;99.90;;;;;;6247165;23;20211;-74
2022/12/20 07:37:16;;;;;;;;;;;13.00;99.90;;;;;;6247466;23;19899;-74
2022/12/20 07:39:41;;;;;;;;;;;13.00;99.90;;;;;;6247073;23;19907;-74
2022/12/20 07:42:08;;;;;;;;;;;13.00;99.90;;;;;;6247413;23;19899;-73
2022/12/20 07:44:33;;;;;;;;;;;12.90;99.90;;;;;;6246933;23;20318;-74
2022/12/20 07:46:59;;;;;;;;;;;12.90;99.90;;;;;;6247676;23;19907;-73
2022/12/20 07:49:24;;;;;;;;;;;12.90;99.90;;;;;;6246971;23;19904;-76
2022/12/20 07:51:54;;;;;;;;;;;13.00;99.90;;;;;;6247277;23;19900;-73
2022/12/20 07:54:22;;;;;;;;;;;12.90;99.90;;;;;;6246892;23;19899;-75
2022/12/20 07:56:50;;;;;;;;;;;12.90;99.90;;;;;;6247297;23;19978;-74
2022/12/20 07:59:17;;;;;;;;;;;12.90;99.90;;;;;;6246870;23;19923;-75
2022/12/20 08:01:44;;;;;;;;;;;12.90;99.90;;;;;;6246721;23;19938;-74
2022/12/20 08:04:11;;;;;;;;;;;12.90;99.90;;;;;;6246586;23;19904;-76
2022/12/20 08:06:38;;;;;;;;;;;12.90;99.90;;;;;;6246791;23;19907;-74
2022/12/20 08:09:04;;;;;;;;;;;12.90;99.90;;;;;;6245968;23;20327;-74
2022/12/20 08:11:31;;;;;;;;;;;12.90;99.90;;;;;;6245802;23;20358;-73
2022/12/20 08:13:57;;;;;;;;;;;12.90;99.90;;;;;;6246447;23;19906;-74
2022/12/20 08:16:22;;;;;;;;;;;12.90;99.90;;;;;;6219549;23;20314;-78
2022/12/20 08:18:48;;;;;;;;;;;12.90;99.90;;;;;;6219755;23;19900;-75
2022/12/20 08:21:13;;;;;;;;;;;12.90;99.90;;;;;;6246643;23;19974;-75
2022/12/20 08:23:39;;;;;;;;;;;12.90;99.90;;;;;;6219701;23;19990;-74
2022/12/20 08:26:04;;;;;;;;;;;12.90;99.90;;;;;;6245934;22;19910;-72
2022/12/20 08:28:30;;;;;;;;;;;12.90;99.90;;;;;;6246649;23;19904;-76
2022/12/20 08:30:59;;;;;;;;;;;12.90;99.90;;;;;;6219188;23;19990;-69
2022/12/20 08:33:25;;;;;;;;;;;12.90;99.90;;;;;;6246778;23;20381;-70
2022/12/20 08:35:56;;;;;;;;;;;12.90;99.90;;;;;;6246188;23;19899;-70
2022/12/20 08:38:21;;;;;;;;;;;12.90;99.90;;;;;;6246112;23;19982;-70
2022/12/20 08:40:47;;;;;;;;;;;12.90;99.90;;;;;;6246290;23;19907;-69
2022/12/20 08:43:12;;;;;;;;;;;12.90;99.90;;;;;;6246551;23;19910;-70
2022/12/20 08:45:38;;;;;;;;;;;12.90;99.90;;;;;;6246268;23;19908;-70
2022/12/20 08:48:03;;;;;;;;;;;12.90;99.90;;;;;;6245847;23;19982;-71
2022/12/20 08:50:29;;;;;;;;;;;13.00;99.90;;;;;;6245682;23;19978;-71
2022/12/20 08:52:54;;;;;;;;;;;13.00;99.90;;;;;;6246462;23;19923;-76
2022/12/20 08:55:20;;;;;;;;;;;13.00;99.90;;;;;;6245747;23;19907;-73
2022/12/20 08:57:45;;;;;;;;;;;13.00;99.90;;;;;;6246225;23;19922;-73
2022/12/20 09:00:11;;;;;;;;;;;13.00;99.90;;;;;;6246067;23;19951;-76
2022/12/20 09:02:37;;;;;;;;;;;13.00;99.90;;;;;;6246081;23;19954;-74
2022/12/20 09:05:03;;;;;;;;;;;13.00;99.90;;;;;;6245455;23;19969;-74
2022/12/20 09:07:29;;;;;;;;;;;13.00;99.90;;;;;;6219001;23;19900;-78
2022/12/20 09:09:54;;;;;;;;;;;13.00;99.90;;;;;;6244847;23;19907;-78
2022/12/20 09:12:20;;;;;;;;;;;12.90;99.90;;;;;;6218961;23;20214;-74
2022/12/20 09:14:45;;;;;;;;;;;12.90;99.90;;;;;;6247902;23;19907;-78
2022/12/20 09:17:11;;;;;;;;;;;12.90;99.90;;;;;;6248287;23;19903;-74
2022/12/20 09:19:36;;;;;;;;;;;12.90;99.90;;;;;;6248103;23;19906;-72
2022/12/20 09:22:03;;;;;;;;;;;12.80;99.90;;;;;;6248102;23;19950;-72
2022/12/20 09:24:28;;;;;;;;;;;12.80;99.90;;;;;;6220329;23;20273;-71
2022/12/20 09:26:54;;;;;;;;;;;12.80;99.90;;;;;;6248739;23;19900;-74
2022/12/20 09:29:19;;;;;;;;;;;12.80;99.90;;;;;;6221486;23;19986;-76
2022/12/20 09:31:45;;;;;;;;;;;12.80;99.90;;;;;;6247719;22;19915;-74
2022/12/20 09:34:10;;;;;;;;;;;12.80;99.90;;;;;;6248283;23;19900;-74
2022/12/20 09:36:37;;;;;;;;;;;12.70;99.90;;;;;;6248810;23;19900;-73
2022/12/20 09:39:02;;;;;;;;;;;12.70;99.90;;;;;;6248165;23;19937;-78
2022/12/20 09:41:37;;;;;;;;;;;12.70;99.90;;;;;;6248431;23;19900;-74
2022/12/20 09:44:22;;;;;;;;;;;12.70;99.90;;;;;;6248246;23;19907;-76
2022/12/20 09:46:51;;;;;;;;;;;12.70;99.90;;;;;;6248359;23;19899;-77
2022/12/20 09:49:18;;;;;;;;;;;12.70;99.90;;;;;;6248150;23;20268;-75
2022/12/20 09:51:50;;;;;;;;;;;12.70;99.90;;;;;;6247513;23;19980;-76
2022/12/20 09:54:18;;;;;;;;;;;12.80;99.90;;;;;;6248176;23;20380;-77
2022/12/20 09:56:46;;;;;;;;;;;12.80;99.90;;;;;;6248409;23;20378;-74
2022/12/20 09:59:12;;;;;;;;;;;12.80;99.90;;;;;;6247972;23;20005;-74
2022/12/20 10:01:41;;;;;;;;;;;12.90;99.90;;;;;;6247957;23;19903;-74
2022/12/20 10:04:30;;;;;;;;;;;12.90;99.90;;;;;;6247927;23;20307;-82
2022/12/20 10:06:55;;;;;;;;;;;12.90;99.90;;;;;;6247723;23;20238;-72
2022/12/20 10:09:36;;;;;;;;;;;12.90;99.90;;;;;;6247643;23;19975;-75
2022/12/20 10:12:16;;;;;;;;;;;12.90;99.90;;;;;;6247567;23;19948;-75
2022/12/20 10:14:45;;;;;;;;;;;12.90;99.90;;;;;;6245883;23;19907;-76
2022/12/20 10:17:16;;;;;;;;;;;12.90;99.90;;;;;;6247582;23;19900;-71
2022/12/20 10:20:00;;;;;;;;;;;12.90;99.90;;;;;;6247195;23;19904;-73
2022/12/20 10:22:49;;;;;;;;;;;12.90;99.90;;;;;;6247934;23;19899;-73
2022/12/20 10:25:21;;;;;;;;;;;12.90;99.90;;;;;;6226793;22;19978;-73
2022/12/20 10:27:49;;;;;;;;;;;12.90;99.90;;;;;;6220864;23;19974;-73
2022/12/20 10:30:16;;;;;;;;;;;12.90;99.90;;;;;;6248146;23;19930;-73
2022/12/20 10:32:43;;;;;;;;;;;12.90;99.90;;;;;;6247183;23;19961;-73
2022/12/20 10:35:09;;;;;;;;;;;12.90;99.90;;;;;;6247556;23;19899;-72
2022/12/20 10:37:34;;;;;;;;;;;12.90;99.90;;;;;;6247742;23;19957;-72
2022/12/20 10:40:00;;;;;;;;;;;13.00;99.90;;;;;;6247400;23;19899;-71
2022/12/20 10:42:28;;;;;;;;;;;13.00;99.90;;;;;;6247635;23;19899;-74
2022/12/20 10:44:54;;;;;;;;;;;13.00;99.90;;;;;;6247648;23;20337;-78
2022/12/20 10:47:23;;;;;;;;;;;13.00;99.90;;;;;;6248496;23;19950;-69
2022/12/20 10:49:49;;;;;;;;;;;13.10;99.90;;;;;;6247513;23;20322;-72
2022/12/20 10:52:16;;;;;;;;;;;13.00;99.90;;;;;;6247582;23;19982;-75
2022/12/20 10:54:43;;;;;;;;;;;13.00;99.90;;;;;;6247489;23;19931;-73
2022/12/20 10:57:19;;;;;;;;;;;13.00;99.90;;;;;;6247541;23;19900;-74
2022/12/20 10:59:53;;;;;;;;;;;13.00;99.90;;;;;;6248151;23;19899;-80
2022/12/20 11:02:39;;;;;;;;;;;13.00;99.90;;;;;;6247543;23;20380;-79
2022/12/20 11:05:10;;;;;;;;;;;12.90;99.90;;;;;;6246001;23;19904;-76
2022/12/20 11:07:37;;;;;;;;;;;13.00;99.90;;;;;;6247480;23;19900;-75
2022/12/20 11:10:16;;;;;;;;;;;13.00;99.90;;;;;;6247283;23;19918;-76
2022/12/20 11:12:51;;;;;;;;;;;13.00;99.90;;;;;;6247281;23;19926;-73
2022/12/20 11:15:28;;;;;;;;;;;13.00;99.90;;;;;;6247151;23;19899;-75
2022/12/20 11:17:59;;;;;;;;;;;13.00;99.90;;;;;;6247362;23;19907;-74
2022/12/20 11:20:33;;;;;;;;;;;13.00;99.90;;;;;;6247525;23;19915;-77
2022/12/20 11:23:10;;;;;;;;;;;13.00;99.90;;;;;;6247747;23;19975;-75
2022/12/20 11:25:38;;;;;;;;;;;12.80;99.90;;;;;;6247537;22;19904;-75
2022/12/20 11:28:22;;;;;;;;;;;12.80;99.90;;;;;;6247300;23;20229;-74
2022/12/20 11:31:07;;;;;;;;;;;12.80;99.90;;;;;;6247009;23;19900;-70
2022/12/20 11:33:37;;;;;;;;;;;12.70;99.90;;;;;;6247222;23;19919;-74
2022/12/20 11:36:07;;;;;;;;;;;12.70;99.90;;;;;;6247378;23;19953;-72
2022/12/20 11:38:45;;;;;;;;;;;12.60;99.90;;;;;;6245916;23;19899;-72
2022/12/20 11:41:29;;;;;;;;;;;12.60;99.90;;;;;;6247496;23;19930;-72
2022/12/20 11:44:08;;;;;;;;;;;12.30;99.90;;;;;;6247005;23;19900;-72
2022/12/20 11:46:39;;;;;;;;;;;12.10;99.90;;;;;;6246837;23;19900;-72
2022/12/20 11:49:08;;;;;;;;;;;11.90;99.90;;;;;;6219974;23;19900;-72
2022/12/20 11:51:59;;;;;;;;;;;11.80;99.90;;;;;;6247376;23;20310;-72
2022/12/20 11:54:30;;;;;;;;;;;11.60;99.90;;;;;;6247367;23;19900;-73
2022/12/20 11:56:58;;;;;;;;;;;11.40;99.90;;;;;;6247372;23;19899;-72
2022/12/20 11:59:33;;;;;;;;;;;11.40;99.90;;;;;;6246904;23;20306;-72
2022/12/20 12:02:09;;;;;;;;;;;11.30;99.90;;;;;;6247373;23;20277;-72
2022/12/20 12:05:01;;;;;;;;;;;11.20;99.90;;;;;;6246871;23;19958;-72
2022/12/20 12:07:31;;;;;;;;;;;11.20;99.90;;;;;;6189298;23;19926;-72
2022/12/20 12:10:01;;;;;;;;;;;11.30;99.90;;;;;;6220030;23;19899;-72
2022/12/20 12:12:27;;;;;;;;;;;11.20;99.90;;;;;;6246907;23;19906;-72
2022/12/20 12:14:52;;;;;;;;;;;11.10;99.90;;;;;;6220071;23;19899;-72
2022/12/20 12:17:28;;;;;;;;;;;11.20;99.90;;;;;;6247197;23;19903;-72
2022/12/20 12:19:56;;;;;;;;;;;11.20;99.90;;;;;;6219592;23;20305;-72
2022/12/20 12:22:27;;;;;;;;;;;11.20;99.90;;;;;;6219946;23;19923;-72
2022/12/20 12:24:55;;;;;;;;;;;11.20;99.90;;;;;;6246844;22;19939;-72
2022/12/20 12:27:25;;;;;;;;;;;11.20;99.90;;;;;;6247415;23;19899;-72
2022/12/20 12:29:53;;;;;;;;;;;11.20;99.90;;;;;;6246659;23;19906;-72
2022/12/20 12:32:18;;;;;;;;;;;11.20;99.90;;;;;;6246257;23;19912;-73
2022/12/20 12:34:50;;;;;;;;;;;11.20;99.90;;;;;;6246684;23;19906;-72
2022/12/20 12:37:34;;;;;;;;;;;11.30;99.90;;;;;;6246983;23;19899;-72
2022/12/20 12:40:15;;;;;;;;;;;11.30;99.90;;;;;;6246584;23;19903;-72
2022/12/20 12:42:52;;;;;;;;;;;11.40;99.90;;;;;;6247372;23;20302;-72
2022/12/20 12:45:23;;;;;;;;;;;11.40;99.90;;;;;;6246466;23;19903;-72
2022/12/20 12:47:50;;;;;;;;;;;11.50;99.90;;;;;;6246488;23;19982;-73
2022/12/20 12:50:28;;;;;;;;;;;11.50;99.90;;;;;;6247162;23;20238;-72
2022/12/20 12:53:03;;;;;;;;;;;11.50;99.90;;;;;;6247347;23;19981;-72
2022/12/20 12:55:35;;;;;;;;;;;11.60;99.90;;;;;;6247003;23;19906;-72
2022/12/20 12:58:19;;;;;;;;;;;11.70;99.90;;;;;;6246514;23;19932;-72
2022/12/20 13:00:51;;;;;;;;;;;11.60;99.90;;;;;;6246494;23;19907;-72
2022/12/20 13:03:34;;;;;;;;;;;11.60;99.90;;;;;;6246875;23;19906;-72
2022/12/20 13:06:18;;;;;;;;;;;11.50;99.90;;;;;;6246469;23;19903;-72
2022/12/20 13:08:48;;;;;;;;;;;11.70;99.90;;;;;;6246436;23;19935;-72
2022/12/20 13:11:27;;;;;;;;;;;11.70;99.90;;;;;;6246473;23;19899;-72
2022/12/20 13:14:10;;;;;;;;;;;11.70;99.90;;;;;;6246847;23;20290;-72
2022/12/20 13:16:38;;;;;;;;;;;11.70;99.90;;;;;;6246872;23;19927;-72
2022/12/20 13:19:10;;;;;;;;;;;11.70;99.90;;;;;;6246796;23;20234;-73
2022/12/20 13:21:36;;;;;;;;;;;11.80;99.90;;;;;;6219286;23;19899;-72
2022/12/20 13:24:20;;;;;;;;;;;11.90;99.90;;;;;;6246535;22;19918;-72
2022/12/20 13:26:51;;;;;;;;;;;12.00;99.90;;;;;;6246357;23;20326;-72
2022/12/20 13:29:24;;;;;;;;;;;12.10;99.90;;;;;;6246725;23;19903;-72
2022/12/20 13:31:49;;;;;;;;;;;12.20;99.90;;;;;;6246281;23;19938;-72
2022/12/20 13:34:35;;;;;;;;;;;12.20;99.90;;;;;;6246328;23;19907;-72
2022/12/20 13:37:01;;;;;;;;;;;12.20;99.90;;;;;;6247057;23;19930;-72
2022/12/20 13:39:26;;;;;;;;;;;12.10;99.90;;;;;;6246298;23;19900;-72
2022/12/20 13:42:13;;;;;;;;;;;11.90;99.90;;;;;;6246308;23;20329;-72
2022/12/20 13:44:41;;;;;;;;;;;11.80;99.90;;;;;;6246952;23;19904;-72
2022/12/20 13:47:16;;;;;;;;;;;11.70;99.90;;;;;;6246267;23;19974;-72
2022/12/20 13:49:42;;;;;;;;;;;11.60;99.90;;;;;;6246641;23;19904;-72
2022/12/20 13:52:21;;;;;;;;;;;11.60;99.90;;;;;;6246222;23;19899;-72
2022/12/20 13:54:48;;;;;;;;;;;11.50;99.90;;;;;;6247024;23;20322;-72
2022/12/20 13:57:15;;;;;;;;;;;11.50;99.90;;;;;;6246876;23;19906;-72
2022/12/20 13:59:44;;;;;;;;;;;11.50;99.90;;;;;;6246972;23;19949;-72
2022/12/20 14:02:16;;;;;;;;;;;11.60;99.90;;;;;;6247862;23;19899;-72
2022/12/20 14:04:46;;;;;;;;;;;11.50;99.90;;;;;;6248378;23;19954;-72
2022/12/20 14:07:13;;;;;;;;;;;11.50;99.90;;;;;;6249190;23;19906;-72
2022/12/20 14:09:43;;;;;;;;;;;11.50;99.90;;;;;;6248776;23;19899;-72
2022/12/20 14:12:13;;;;;;;;;;;11.50;99.90;;;;;;6248036;23;19900;-72
2022/12/20 14:14:42;;;;;;;;;;;11.50;99.90;;;;;;6248007;23;19906;-71
2022/12/20 14:17:15;;;;;;;;;;;11.50;99.90;;;;;;6248718;23;19926;-72
2022/12/20 14:19:41;;;;;;;;;;;11.40;99.90;;;;;;6221132;23;19906;-72
2022/12/20 14:22:08;;;;;;;;;;;11.40;99.90;;;;;;6247964;23;19900;-72
2022/12/20 14:24:35;;;;;;;;;;;11.50;99.90;;;;;;6248017;22;19908;-72
2022/12/20 14:27:00;;;;;;;;;;;11.60;99.90;;;;;;6248279;23;19969;-72
2022/12/20 14:29:29;;;;;;;;;;;11.70;99.90;;;;;;6247884;23;20314;-72
2022/12/20 14:31:56;;;;;;;;;;;11.80;99.90;;;;;;6247773;23;19991;-72